createdAt,value
2018-12-29T00:00:23.490Z,33.43
2018-12-29T00:02:52.800Z,34.10
2018-12-29T00:05:21.896Z,32.83
2018-12-29T00:07:51.447Z,32.13
2018-12-29T00:10:20.358Z,33.43
2018-12-29T00:12:49.975Z,33.63
2018-12-29T00:15:18.821Z,33.27
2018-12-29T00:17:49.685Z,32.53
2018-12-29T00:20:18.532Z,32.47
2018-12-29T00:22:47.577Z,32.40
2018-12-29T00:25:16.426Z,32.47
2018-12-29T00:27:45.233Z,32.83
2018-12-29T00:30:14.148Z,33.23
2018-12-29T00:32:42.933Z,33.13
2018-12-29T00:35:11.863Z,33.97
2018-12-29T00:37:42.442Z,32.93
2018-12-29T00:40:11.408Z,32.33
2018-12-29T00:42:40.257Z,34.27
2018-12-29T00:45:10.927Z,34.80
2018-12-29T00:47:39.811Z,32.67
2018-12-29T00:50:09.434Z,33.90
2018-12-29T00:52:38.299Z,33.17
2018-12-29T00:55:07.130Z,33.70
2018-12-29T00:57:36.161Z,34.43
2018-12-29T01:00:05.186Z,34.50
2018-12-29T01:02:34.181Z,33.47
2018-12-29T01:05:03.687Z,33.00
2018-12-29T01:07:32.498Z,33.50
2018-12-29T01:10:02.054Z,32.77
2018-12-29T01:12:31.131Z,33.60
2018-12-29T01:15:00.034Z,32.77
2018-12-29T01:17:28.894Z,33.30
2018-12-29T01:19:57.693Z,32.37
2018-12-29T01:22:26.536Z,32.13
2018-12-29T01:24:55.350Z,34.23
2018-12-29T01:27:24.285Z,32.90
2018-12-29T01:29:53.119Z,34.77
2018-12-29T01:32:22.016Z,35.47
2018-12-29T01:34:51.881Z,33.27
2018-12-29T01:37:20.812Z,34.30
2018-12-29T01:39:49.803Z,33.77
2018-12-29T01:42:18.572Z,34.17
2018-12-29T01:44:47.486Z,34.40
2018-12-29T01:47:16.478Z,36.13
2018-12-29T01:49:45.272Z,33.97
2018-12-29T01:52:14.173Z,34.10
2018-12-29T01:54:43.371Z,35.23
2018-12-29T01:57:12.447Z,36.63
2018-12-29T01:59:41.251Z,34.40
2018-12-29T02:02:10.046Z,34.20
2018-12-29T02:04:39.810Z,34.53
2018-12-29T02:07:08.586Z,33.93
2018-12-29T02:09:37.402Z,33.83
2018-12-29T02:12:06.422Z,34.30
2018-12-29T02:14:35.315Z,35.60
2018-12-29T02:17:04.870Z,34.83
2018-12-29T02:19:33.758Z,34.00
2018-12-29T02:22:02.587Z,34.43
2018-12-29T02:24:31.402Z,35.67
2018-12-29T02:27:00.355Z,33.77
2018-12-29T02:29:29.219Z,35.17
2018-12-29T02:31:58.164Z,33.60
2018-12-29T02:34:27.061Z,34.27
2018-12-29T02:36:55.840Z,34.43
2018-12-29T02:39:24.703Z,35.83
2018-12-29T02:41:53.488Z,35.87
2018-12-29T02:44:22.281Z,34.60
2018-12-29T02:46:51.078Z,36.67
2018-12-29T02:49:19.883Z,36.43
2018-12-29T02:51:48.909Z,34.73
2018-12-29T02:54:17.724Z,36.00
2018-12-29T02:56:46.652Z,35.27
2018-12-29T02:59:15.511Z,38.03
2018-12-29T03:01:44.282Z,35.73
2018-12-29T03:04:13.270Z,35.47
2018-12-29T03:06:42.562Z,36.83
2018-12-29T03:09:13.648Z,35.77
2018-12-29T03:11:42.613Z,34.87
2018-12-29T03:14:11.582Z,35.00
2018-12-29T03:16:40.481Z,36.17
2018-12-29T03:19:09.292Z,36.33
2018-12-29T03:21:38.787Z,35.30
2018-12-29T03:24:07.875Z,35.15
2018-12-29T03:26:36.751Z,34.90
2018-12-29T03:29:05.502Z,36.50
2018-12-29T03:31:34.324Z,37.43
2018-12-29T03:34:03.205Z,36.73
2018-12-29T03:36:31.992Z,35.27
2018-12-29T03:39:01.651Z,37.67
2018-12-29T03:41:30.645Z,37.20
2018-12-29T03:44:04.295Z,36.67
2018-12-29T03:46:33.078Z,36.70
2018-12-29T03:49:03.727Z,35.07
2018-12-29T03:51:32.616Z,36.70
2018-12-29T03:54:01.698Z,35.60
2018-12-29T03:56:30.490Z,35.67
2018-12-29T03:58:59.314Z,36.97
2018-12-29T04:01:28.182Z,36.27
2018-12-29T04:03:56.990Z,36.37
2018-12-29T04:06:25.778Z,34.73
2018-12-29T04:09:12.802Z,35.80
2018-12-29T04:11:41.541Z,34.30
2018-12-29T04:14:10.438Z,34.90
2018-12-29T04:16:39.262Z,33.63
2018-12-29T04:19:08.236Z,34.93
2018-12-29T04:21:37.005Z,35.60
2018-12-29T04:24:09.922Z,35.23
2018-12-29T04:26:38.853Z,34.03
2018-12-29T04:29:07.674Z,35.43
2018-12-29T04:31:36.479Z,34.73
2018-12-29T04:34:05.221Z,34.03
2018-12-29T04:36:34.174Z,33.83
2018-12-29T04:39:03.250Z,34.10
2018-12-29T04:41:32.049Z,32.70
2018-12-29T04:44:00.837Z,32.93
2018-12-29T04:46:29.850Z,31.70
2018-12-29T04:48:58.630Z,30.97
2018-12-29T04:51:27.610Z,30.43
2018-12-29T04:53:56.607Z,31.53
2018-12-29T04:56:25.444Z,30.63
2018-12-29T04:58:56.311Z,30.27
2018-12-29T05:01:25.082Z,31.20
2018-12-29T05:03:53.874Z,31.00
2018-12-29T05:06:22.755Z,30.43
2018-12-29T05:08:51.602Z,31.13
2018-12-29T05:11:20.391Z,31.27
2018-12-29T05:13:49.601Z,31.77
2018-12-29T05:16:18.399Z,30.47
2018-12-29T05:18:47.353Z,30.50
2018-12-29T05:21:16.341Z,29.17
2018-12-29T05:23:45.087Z,29.93
2018-12-29T05:26:14.274Z,30.80
2018-12-29T05:28:44.870Z,31.80
2018-12-29T05:31:14.637Z,33.13
2018-12-29T05:33:43.440Z,31.13
2018-12-29T05:36:12.997Z,31.73
2018-12-29T05:38:41.819Z,34.17
2018-12-29T05:41:10.897Z,31.10
2018-12-29T05:43:39.835Z,31.40
2018-12-29T05:46:08.771Z,31.90
2018-12-29T05:48:38.374Z,31.20
2018-12-29T05:51:07.195Z,31.70
2018-12-29T05:53:35.998Z,32.53
2018-12-29T05:56:04.914Z,32.60
2018-12-29T05:58:33.731Z,31.87
2018-12-29T06:01:02.521Z,31.57
2018-12-29T06:03:31.382Z,33.23
2018-12-29T06:06:00.197Z,32.37
2018-12-29T06:08:29.029Z,32.33
2018-12-29T06:10:58.171Z,33.33
2018-12-29T06:13:27.092Z,33.10
2018-12-29T06:15:55.810Z,34.07
2018-12-29T06:18:24.665Z,33.70
2018-12-29T06:20:53.610Z,32.53
2018-12-29T06:23:22.375Z,32.20
2018-12-29T06:25:51.468Z,33.30
2018-12-29T06:28:21.281Z,33.63
2018-12-29T06:30:50.457Z,33.30
2018-12-29T06:33:19.257Z,35.63
2018-12-29T06:35:48.037Z,35.13
2018-12-29T06:38:17.580Z,34.95
2018-12-29T06:40:46.430Z,34.00
2018-12-29T06:43:15.522Z,33.60
2018-12-29T06:45:45.215Z,34.13
2018-12-29T06:48:13.999Z,33.37
2018-12-29T06:50:43.053Z,33.53
2018-12-29T06:53:11.845Z,34.63
2018-12-29T06:55:41.419Z,33.43
2018-12-29T06:58:10.176Z,34.73
2018-12-29T07:00:39.029Z,34.03
2018-12-29T07:03:07.850Z,34.83
2018-12-29T07:05:36.816Z,33.10
2018-12-29T07:08:05.604Z,36.53
2018-12-29T07:10:34.380Z,34.50
2018-12-29T07:13:03.978Z,33.43
2018-12-29T07:15:32.742Z,34.03
2018-12-29T07:18:01.625Z,35.27
2018-12-29T07:20:30.605Z,34.93
2018-12-29T07:22:59.359Z,33.87
2018-12-29T07:25:28.129Z,34.17
2018-12-29T07:27:57.075Z,35.93
2018-12-29T07:30:25.903Z,36.97
2018-12-29T07:32:55.197Z,34.30
2018-12-29T07:35:23.975Z,34.40
2018-12-29T07:37:53.010Z,35.50
2018-12-29T07:40:23.827Z,36.17
2018-12-29T07:42:52.836Z,37.13
2018-12-29T07:45:21.774Z,36.57
2018-12-29T07:47:50.559Z,36.37
2018-12-29T07:50:21.104Z,35.73
2018-12-29T07:52:50.806Z,38.03
2018-12-29T07:55:19.667Z,37.67
2018-12-29T07:57:48.506Z,36.07
2018-12-29T08:00:17.355Z,37.70
2018-12-29T08:02:46.168Z,37.17
2018-12-29T08:05:14.956Z,35.93
2018-12-29T08:07:43.852Z,36.20
2018-12-29T08:10:12.738Z,35.87
2018-12-29T08:12:41.615Z,36.70
2018-12-29T08:15:12.423Z,36.23
2018-12-29T08:17:41.170Z,35.67
2018-12-29T08:20:10.101Z,37.43
2018-12-29T08:22:38.889Z,36.00
2018-12-29T08:25:07.836Z,35.97
2018-12-29T08:27:36.757Z,36.57
2018-12-29T08:30:06.302Z,36.87
2018-12-29T08:32:37.161Z,38.10
2018-12-29T08:35:12.754Z,35.10
2018-12-29T08:37:41.687Z,36.63
2018-12-29T08:40:10.741Z,34.90
2018-12-29T08:42:39.836Z,37.33
2018-12-29T08:45:08.666Z,35.93
2018-12-29T08:47:45.515Z,37.43
2018-12-29T08:50:14.378Z,36.57
2018-12-29T08:52:43.250Z,37.43
2018-12-29T08:55:12.114Z,37.60
2018-12-29T08:57:41.098Z,36.80
2018-12-29T09:00:10.022Z,36.13
2018-12-29T09:02:38.755Z,36.60
2018-12-29T09:05:07.562Z,37.67
2018-12-29T09:07:36.435Z,37.73
2018-12-29T09:10:05.853Z,37.27
2018-12-29T09:12:37.367Z,36.27
2018-12-29T09:15:06.152Z,37.17
2018-12-29T09:17:35.031Z,38.03
2018-12-29T09:20:04.200Z,37.10
2018-12-29T09:22:33.017Z,36.73
2018-12-29T09:25:01.823Z,38.70
2018-12-29T09:27:30.649Z,38.87
2018-12-29T09:29:59.821Z,37.73
2018-12-29T09:32:31.243Z,37.40
2018-12-29T09:35:00.237Z,39.73
2018-12-29T09:37:29.020Z,37.50
2018-12-29T09:39:58.211Z,38.17
2018-12-29T09:42:27.020Z,37.93
2018-12-29T09:44:56.113Z,40.87
2018-12-29T09:47:25.044Z,39.70
2018-12-29T09:49:53.910Z,38.93
2018-12-29T09:52:22.835Z,39.53
2018-12-29T09:54:51.900Z,40.53
2018-12-29T09:57:23.486Z,40.67
2018-12-29T09:59:54.616Z,39.87
2018-12-29T10:02:23.379Z,41.47
2018-12-29T10:04:52.218Z,40.37
2018-12-29T10:07:21.136Z,44.03
2018-12-29T10:09:50.004Z,42.47
2018-12-29T10:12:18.790Z,42.87
2018-12-29T10:14:47.634Z,44.57
2018-12-29T10:17:17.088Z,45.70
2018-12-29T10:19:45.919Z,45.60
2018-12-29T10:22:14.708Z,47.90
2018-12-29T10:24:43.779Z,45.40
2018-12-29T10:27:12.731Z,47.57
2018-12-29T10:29:41.770Z,47.13
2018-12-29T10:32:10.527Z,47.87
2018-12-29T10:34:39.325Z,49.00
2018-12-29T10:37:08.190Z,48.03
2018-12-29T10:39:37.018Z,49.23
2018-12-29T10:42:05.925Z,47.27
2018-12-29T10:44:35.218Z,48.23
2018-12-29T10:47:06.416Z,47.63
2018-12-29T10:49:35.231Z,48.00
2018-12-29T10:52:04.118Z,48.53
2018-12-29T10:54:33.219Z,47.13
2018-12-29T10:57:02.080Z,47.70
2018-12-29T10:59:30.861Z,47.57
2018-12-29T11:01:59.901Z,46.83
2018-12-29T11:04:28.911Z,46.23
2018-12-29T11:06:57.883Z,47.50
2018-12-29T11:09:26.772Z,44.63
2018-12-29T11:11:55.685Z,45.87
2018-12-29T11:14:24.513Z,46.47
2018-12-29T11:16:53.774Z,46.97
2018-12-29T11:19:24.550Z,44.47
2018-12-29T11:21:53.487Z,45.40
2018-12-29T11:24:22.436Z,45.17
2018-12-29T11:26:51.567Z,44.50
2018-12-29T11:29:20.365Z,44.83
2018-12-29T11:31:49.282Z,43.93
2018-12-29T11:34:18.084Z,43.50
2018-12-29T11:36:47.138Z,42.73
2018-12-29T11:39:15.958Z,42.53
2018-12-29T11:41:44.986Z,43.33
2018-12-29T11:44:14.000Z,42.43
2018-12-29T11:46:42.961Z,41.60
2018-12-29T11:49:18.048Z,41.83
2018-12-29T11:51:43.070Z,40.60
2018-12-29T11:54:11.882Z,40.07
2018-12-29T11:56:40.763Z,40.10
2018-12-29T11:59:09.890Z,40.13
2018-12-29T12:01:38.885Z,40.77
2018-12-29T12:04:07.824Z,38.17
2018-12-29T12:06:38.549Z,39.97
2018-12-29T12:09:07.635Z,38.77
2018-12-29T12:11:37.174Z,38.30
2018-12-29T12:14:06.447Z,39.40
2018-12-29T12:16:35.373Z,37.30
2018-12-29T12:19:04.358Z,38.93
2018-12-29T12:21:33.315Z,37.13
2018-12-29T12:24:02.202Z,38.47
2018-12-29T12:26:31.376Z,36.87
2018-12-29T12:29:00.884Z,37.43
2018-12-29T12:31:30.287Z,38.77
2018-12-29T12:33:59.503Z,36.40
2018-12-29T12:36:29.011Z,36.23
2018-12-29T12:38:57.928Z,37.50
2018-12-29T12:41:27.743Z,36.23
2018-12-29T12:43:56.959Z,35.77
2018-12-29T12:46:25.927Z,35.27
2018-12-29T12:48:55.361Z,37.20
2018-12-29T12:51:24.387Z,36.07
2018-12-29T12:53:53.483Z,34.93
2018-12-29T12:56:22.483Z,34.87
2018-12-29T12:58:51.735Z,35.20
2018-12-29T13:01:21.028Z,34.50
2018-12-29T13:03:50.020Z,34.53
2018-12-29T13:06:18.961Z,32.53
2018-12-29T13:08:47.883Z,33.83
2018-12-29T13:11:16.786Z,32.80
2018-12-29T13:13:45.763Z,33.23
2018-12-29T13:16:14.891Z,33.03
2018-12-29T13:18:43.697Z,31.90
2018-12-29T13:21:12.585Z,31.83
2018-12-29T13:23:41.981Z,31.30
2018-12-29T13:26:11.044Z,31.03
2018-12-29T13:28:39.879Z,31.17
2018-12-29T13:31:11.289Z,31.47
2018-12-29T13:33:40.409Z,32.83
2018-12-29T13:36:09.787Z,31.40
2018-12-29T13:38:38.605Z,31.10
2018-12-29T13:41:07.615Z,31.30
2018-12-29T13:43:36.829Z,31.43
2018-12-29T13:46:05.803Z,31.23
2018-12-29T13:48:36.945Z,29.97
2018-12-29T13:51:05.946Z,30.03
2018-12-29T13:53:34.894Z,29.80
2018-12-29T13:56:03.729Z,28.93
2018-12-29T13:58:33.271Z,29.43
2018-12-29T14:01:02.183Z,29.07
2018-12-29T14:03:31.833Z,30.00
2018-12-29T14:06:00.725Z,29.07
2018-12-29T14:08:29.532Z,27.30
2018-12-29T14:10:58.527Z,25.47
2018-12-29T14:13:27.599Z,26.30
2018-12-29T14:15:56.574Z,25.80
2018-12-29T14:18:28.410Z,25.07
2018-12-29T14:20:56.173Z,25.63
2018-12-29T14:23:35.854Z,24.80
2018-12-29T14:26:06.730Z,25.93
2018-12-29T14:28:36.351Z,24.63
2018-12-29T14:31:05.898Z,25.00
2018-12-29T14:33:35.104Z,24.97
2018-12-29T14:36:04.102Z,25.17
2018-12-29T14:38:32.948Z,24.83
2018-12-29T14:41:02.596Z,25.63
2018-12-29T14:43:33.442Z,26.03
2018-12-29T14:46:02.246Z,25.43
2018-12-29T14:48:36.025Z,24.90
2018-12-29T14:51:04.238Z,25.63
2018-12-29T14:53:33.160Z,24.97
2018-12-29T14:56:02.443Z,26.13
2018-12-29T14:58:31.296Z,25.33
2018-12-29T15:01:00.232Z,25.13
2018-12-29T15:03:29.303Z,25.70
2018-12-29T15:05:58.403Z,25.83
2018-12-29T15:08:27.290Z,27.60
2018-12-29T15:10:56.267Z,24.30
2018-12-29T15:13:25.602Z,23.83
2018-12-29T15:15:54.642Z,24.57
2018-12-29T15:18:24.117Z,24.70
2018-12-29T15:20:53.420Z,25.07
2018-12-29T15:23:22.310Z,23.67
2018-12-29T15:25:51.973Z,21.97
2018-12-29T15:28:23.126Z,22.53
2018-12-29T15:30:51.953Z,19.70
2018-12-29T15:33:22.946Z,20.10
2018-12-29T15:35:51.877Z,18.90
2018-12-29T15:38:20.765Z,17.37
2018-12-29T15:40:52.765Z,17.00
2018-12-29T15:43:21.778Z,17.30
2018-12-29T15:45:50.629Z,16.83
2018-12-29T15:48:19.911Z,15.90
2018-12-29T15:50:48.807Z,15.23
2018-12-29T15:53:17.859Z,15.63
2018-12-29T15:55:46.910Z,14.97
2018-12-29T15:58:16.445Z,15.87
2018-12-29T16:00:45.572Z,15.73
2018-12-29T16:03:15.036Z,14.87
2018-12-29T16:05:44.155Z,15.57
2018-12-29T16:08:13.612Z,14.77
2018-12-29T16:10:42.593Z,14.50
2018-12-29T16:13:11.647Z,15.63
2018-12-29T16:15:40.593Z,16.40
2018-12-29T16:18:12.007Z,15.63
2018-12-29T16:20:41.334Z,15.73
2018-12-29T16:23:10.599Z,14.50
2018-12-29T16:25:40.272Z,16.90
2018-12-29T16:28:09.482Z,15.30
2018-12-29T16:30:39.716Z,16.30
2018-12-29T16:33:08.734Z,15.53
2018-12-29T16:35:37.724Z,16.00
2018-12-29T16:38:06.963Z,15.85
2018-12-29T16:40:35.921Z,15.43
2018-12-29T16:43:04.795Z,15.30
2018-12-29T16:45:34.502Z,14.97
2018-12-29T16:48:03.634Z,14.80
2018-12-29T16:50:32.564Z,15.70
2018-12-29T16:53:01.562Z,15.37
2018-12-29T16:55:31.222Z,16.67
2018-12-29T16:58:00.567Z,16.03
2018-12-29T17:00:29.567Z,15.53
2018-12-29T17:02:58.486Z,16.13
2018-12-29T17:05:27.627Z,17.13
2018-12-29T17:07:56.734Z,16.67
2018-12-29T17:10:25.622Z,17.07
2018-12-29T17:12:55.343Z,16.87
2018-12-29T17:15:24.281Z,17.67
2018-12-29T17:17:53.220Z,17.33
2018-12-29T17:20:22.042Z,18.37
2018-12-29T17:22:51.002Z,18.40
2018-12-29T17:25:23.349Z,19.27
2018-12-29T17:27:52.432Z,20.17
2018-12-29T17:30:21.396Z,19.27
2018-12-29T17:32:50.513Z,20.47
2018-12-29T17:35:19.875Z,20.13
2018-12-29T17:37:48.977Z,21.47
2018-12-29T17:40:18.102Z,22.70
2018-12-29T17:42:46.990Z,22.27
2018-12-29T17:45:16.630Z,23.03
2018-12-29T17:47:45.590Z,23.20
2018-12-29T17:50:14.769Z,22.43
2018-12-29T17:52:44.650Z,24.20
2018-12-29T17:55:16.162Z,23.93
2018-12-29T17:57:45.559Z,25.47
2018-12-29T18:00:15.001Z,25.43
2018-12-29T18:02:44.669Z,25.23
2018-12-29T18:05:14.816Z,26.17
2018-12-29T18:07:45.101Z,28.13
2018-12-29T18:10:14.824Z,24.37
2018-12-29T18:12:45.143Z,26.43
2018-12-29T18:15:14.667Z,27.93
2018-12-29T18:17:44.476Z,26.67
2018-12-29T18:20:16.223Z,28.80
2018-12-29T18:22:46.061Z,28.37
2018-12-29T18:25:15.827Z,27.20
2018-12-29T18:27:45.607Z,26.80
2018-12-29T18:30:15.435Z,27.17
2018-12-29T18:32:45.952Z,27.93
2018-12-29T18:35:15.501Z,29.20
2018-12-29T18:37:45.108Z,27.80
2018-12-29T18:40:15.059Z,26.37
2018-12-29T18:42:44.994Z,26.80
2018-12-29T18:45:14.702Z,26.50
2018-12-29T18:47:44.281Z,26.10
2018-12-29T18:50:14.006Z,27.93
2018-12-29T18:52:43.702Z,28.87
2018-12-29T18:55:13.653Z,26.35
2018-12-29T18:57:43.192Z,25.17
2018-12-29T19:00:13.568Z,26.05
2018-12-29T19:02:43.281Z,25.27
2018-12-29T19:05:12.767Z,24.83
2018-12-29T19:07:42.417Z,26.17
2018-12-29T19:10:12.407Z,25.87
2018-12-29T19:12:42.271Z,24.10
2018-12-29T19:15:11.767Z,24.20
2018-12-29T19:17:42.305Z,24.33
2018-12-29T19:20:12.124Z,23.40
2018-12-29T19:22:41.889Z,22.37
2018-12-29T19:25:11.434Z,20.17
2018-12-29T19:27:41.203Z,20.23
2018-12-29T19:30:10.748Z,19.80
2018-12-29T19:32:40.299Z,17.80
2018-12-29T19:35:09.864Z,18.97
2018-12-29T19:37:39.596Z,19.23
2018-12-29T19:40:09.235Z,17.40
2018-12-29T19:42:38.940Z,15.30
2018-12-29T19:45:08.531Z,14.50
2018-12-29T19:47:38.067Z,14.40
2018-12-29T19:50:08.076Z,14.90
2018-12-29T19:52:37.561Z,11.83
2018-12-29T19:55:07.337Z,8.63
2018-12-29T19:57:36.971Z,7.10
2018-12-29T20:00:08.287Z,4.93
2018-12-29T20:02:38.085Z,3.87
2018-12-29T20:05:08.122Z,3.20
2018-12-29T20:07:37.895Z,3.40
2018-12-29T20:10:08.132Z,3.53
2018-12-29T20:12:38.708Z,3.13
2018-12-29T20:15:08.238Z,3.70
2018-12-29T20:17:38.041Z,3.10
2018-12-29T20:20:07.954Z,3.47
2018-12-29T20:22:37.681Z,2.80
2018-12-29T20:25:08.125Z,3.07
2018-12-29T20:27:36.897Z,2.73
2018-12-29T20:30:07.593Z,3.20
2018-12-29T20:32:37.420Z,4.33
2018-12-29T20:35:07.242Z,3.00
2018-12-29T20:37:37.166Z,3.40
2018-12-29T20:40:07.188Z,3.67
2018-12-29T20:42:36.623Z,2.77
2018-12-29T20:45:06.428Z,3.43
2018-12-29T20:47:36.199Z,3.40
2018-12-29T20:50:09.607Z,3.43
2018-12-29T20:52:37.465Z,3.90
2018-12-29T20:55:07.013Z,4.20
2018-12-29T20:57:36.565Z,4.10
2018-12-29T21:00:07.658Z,4.47
2018-12-29T21:02:37.639Z,4.17
2018-12-29T21:05:07.249Z,4.43
2018-12-29T21:07:36.882Z,3.40
2018-12-29T21:10:06.717Z,3.57
2018-12-29T21:12:36.436Z,3.40
2018-12-29T21:15:06.391Z,3.70
2018-12-29T21:17:36.254Z,4.37
2018-12-29T21:20:06.555Z,4.50
2018-12-29T21:22:36.726Z,3.87
2018-12-29T21:25:06.760Z,3.30
2018-12-29T21:27:37.981Z,4.17
2018-12-29T21:30:07.845Z,3.63
2018-12-29T21:32:37.363Z,2.90
2018-12-29T21:35:07.445Z,4.10
2018-12-29T21:37:37.230Z,3.23
2018-12-29T21:40:08.643Z,4.07
2018-12-29T21:42:38.474Z,3.93
2018-12-29T21:45:08.117Z,4.42
2018-12-29T21:47:37.949Z,4.27
2018-12-29T21:50:08.251Z,3.73
2018-12-29T21:52:38.083Z,3.37
2018-12-29T21:55:07.642Z,4.40
2018-12-29T21:57:37.432Z,4.07
2018-12-29T22:00:07.899Z,4.13
2018-12-29T22:02:37.561Z,3.43
2018-12-29T22:05:07.042Z,4.23
2018-12-29T22:07:38.268Z,3.70
2018-12-29T22:10:08.445Z,4.17
2018-12-29T22:12:38.207Z,3.60
2018-12-29T22:15:09.076Z,3.17
2018-12-29T22:17:39.790Z,3.15
2018-12-29T22:20:09.863Z,4.37
2018-12-29T22:22:38.718Z,3.53
2018-12-29T22:25:08.637Z,3.63
2018-12-29T22:27:38.293Z,3.33
2018-12-29T22:30:08.367Z,4.07
2018-12-29T22:32:37.837Z,3.67
2018-12-29T22:35:07.461Z,3.30
2018-12-29T22:37:36.312Z,3.90
2018-12-29T22:40:06.154Z,4.63
2018-12-29T22:42:35.868Z,4.03
2018-12-29T22:45:06.431Z,3.70
2018-12-29T22:47:36.056Z,4.20
2018-12-29T22:50:05.325Z,3.77
2018-12-29T22:52:34.845Z,4.23
2018-12-29T22:55:04.600Z,4.57
2018-12-29T22:57:34.493Z,4.20
2018-12-29T23:00:04.945Z,4.03
2018-12-29T23:02:34.575Z,4.13
2018-12-29T23:05:03.642Z,3.80
2018-12-29T23:07:33.510Z,4.20
2018-12-29T23:10:03.280Z,3.83
2018-12-29T23:12:32.863Z,3.65
2018-12-29T23:15:02.838Z,4.47
2018-12-29T23:17:32.627Z,4.37
2018-12-29T23:20:02.160Z,4.50
2018-12-29T23:22:33.048Z,3.87
2018-12-29T23:25:02.812Z,3.83
2018-12-29T23:27:33.522Z,4.57
2018-12-29T23:30:03.708Z,4.67
2018-12-29T23:32:33.720Z,4.30
2018-12-29T23:35:03.676Z,3.97
2018-12-29T23:37:33.214Z,5.22
2018-12-29T23:40:03.159Z,5.53
2018-12-29T23:42:32.089Z,4.62
2018-12-29T23:45:01.713Z,4.87
2018-12-29T23:47:33.919Z,4.47
2018-12-29T23:50:03.542Z,4.20
2018-12-29T23:52:33.449Z,3.90
2018-12-29T23:55:02.837Z,4.00
2018-12-29T23:57:32.376Z,4.30
